Time;durP1;ratioP1;P1;durP2;ratioP2;P2;SDS_P1;SDS_P2;PMS_P1;PMS_P2;Temp;Humidity;BMP_temperature;BMP_pressure;BME280_temperature;BME280_humidity;BME280_pressure;Samples;Min_cycle;Max_cycle;Signal;HPM_P1;HPM_P2
2022/10/19 00:01:11;;;;;;;;;;;20.30;59.30;;;;;;5018260;28;19909;-74
2022/10/19 00:03:37;;;;;;;;;;;20.30;59.30;;;;;;5035893;28;19948;-74
2022/10/19 00:06:09;;;;;;;;;;;20.30;59.30;;;;;;5035645;28;19964;-74
2022/10/19 00:08:34;;;;;;;;;;;20.30;59.50;;;;;;5026473;28;19913;-74
2022/10/19 00:11:00;;;;;;;;;;;20.30;59.50;;;;;;5055382;28;19916;-74
2022/10/19 00:13:26;;;;;;;;;;;20.20;59.40;;;;;;5038156;28;19962;-74
2022/10/19 00:15:51;;;;;;;;;;;20.20;59.50;;;;;;5055659;28;19909;-74
2022/10/19 00:18:17;;;;;;;;;;;20.20;59.40;;;;;;5037430;28;19916;-73
2022/10/19 00:20:42;;;;;;;;;;;20.20;59.50;;;;;;5034445;28;19909;-74
2022/10/19 00:23:07;;;;;;;;;;;20.20;59.40;;;;;;5035538;28;19915;-74
2022/10/19 00:25:33;;;;;;;;;;;20.20;59.40;;;;;;5035457;28;19937;-74
2022/10/19 00:27:59;;;;;;;;;;;20.20;59.50;;;;;;5017894;28;19920;-74
2022/10/19 00:30:24;;;;;;;;;;;20.20;59.40;;;;;;5035415;28;19919;-74
2022/10/19 00:32:50;;;;;;;;;;;20.20;59.50;;;;;;5034795;28;19963;-74
2022/10/19 00:35:15;;;;;;;;;;;20.20;59.50;;;;;;5017764;28;19909;-74
2022/10/19 00:37:40;;;;;;;;;;;20.20;59.50;;;;;;5036260;28;19996;-74
2022/10/19 00:40:06;;;;;;;;;;;20.20;59.40;;;;;;5054942;28;19916;-74
2022/10/19 00:42:32;;;;;;;;;;;20.20;59.40;;;;;;5055206;28;20333;-74
2022/10/19 00:44:58;;;;;;;;;;;20.20;59.50;;;;;;5055455;28;19916;-73
2022/10/19 00:47:24;;;;;;;;;;;20.20;59.40;;;;;;5053634;28;19977;-74
2022/10/19 00:49:49;;;;;;;;;;;20.20;59.50;;;;;;5053822;28;20365;-73
2022/10/19 00:52:16;;;;;;;;;;;20.20;59.40;;;;;;5053733;28;19920;-74
2022/10/19 00:54:41;;;;;;;;;;;20.20;59.50;;;;;;5039327;28;20277;-74
2022/10/19 00:57:07;;;;;;;;;;;20.20;59.60;;;;;;5017418;28;19909;-74
2022/10/19 00:59:32;;;;;;;;;;;20.20;59.60;;;;;;5034997;28;20413;-74
2022/10/19 01:01:58;;;;;;;;;;;20.20;59.50;;;;;;5034488;28;19909;-74
2022/10/19 01:04:23;;;;;;;;;;;20.10;59.40;;;;;;5017177;28;19909;-74
2022/10/19 01:06:49;;;;;;;;;;;20.20;59.50;;;;;;5013720;28;20321;-72
2022/10/19 01:09:14;;;;;;;;;;;20.10;60.10;;;;;;5028128;28;19914;-73
2022/10/19 01:11:52;;;;;;;;;;;20.20;59.50;;;;;;5034723;28;20381;-74
2022/10/19 01:14:36;;;;;;;;;;;20.10;59.40;;;;;;5033584;28;19913;-74
2022/10/19 01:17:04;;;;;;;;;;;20.10;59.40;;;;;;5034202;28;19909;-74
2022/10/19 01:19:49;;;;;;;;;;;20.10;59.40;;;;;;5034563;28;20295;-74
2022/10/19 01:22:25;;;;;;;;;;;20.10;59.40;;;;;;5034475;28;19913;-74
2022/10/19 01:24:58;;;;;;;;;;;20.20;59.30;;;;;;5032861;28;19909;-74
2022/10/19 01:27:43;;;;;;;;;;;20.20;59.30;;;;;;5033215;28;19913;-73
2022/10/19 01:30:12;;;;;;;;;;;20.20;59.10;;;;;;5033156;28;19909;-74
2022/10/19 01:32:46;;;;;;;;;;;20.20;59.10;;;;;;5016190;28;20026;-73
2022/10/19 01:35:30;;;;;;;;;;;20.20;59.10;;;;;;5032949;28;20373;-73
2022/10/19 01:38:04;;;;;;;;;;;20.20;59.20;;;;;;5032980;28;20048;-74
2022/10/19 01:40:30;;;;;;;;;;;20.20;59.20;;;;;;5016032;28;20012;-74
2022/10/19 01:43:00;;;;;;;;;;;20.20;59.30;;;;;;5025267;28;19909;-74
2022/10/19 01:45:27;;;;;;;;;;;20.20;59.30;;;;;;4996769;28;19910;-74
2022/10/19 01:47:54;;;;;;;;;;;20.10;59.30;;;;;;5013804;28;19909;-74
2022/10/19 01:50:24;;;;;;;;;;;20.10;59.30;;;;;;5012942;28;19910;-74
2022/10/19 01:52:50;;;;;;;;;;;20.10;59.30;;;;;;5012829;28;19920;-74
2022/10/19 01:55:16;;;;;;;;;;;20.10;59.40;;;;;;5012597;28;20012;-74
2022/10/19 01:57:45;;;;;;;;;;;20.10;59.40;;;;;;5012908;28;19910;-74
2022/10/19 02:00:10;;;;;;;;;;;20.10;59.30;;;;;;5012965;28;19969;-74
2022/10/19 02:02:36;;;;;;;;;;;20.10;59.30;;;;;;5012442;28;20269;-74
2022/10/19 02:05:02;;;;;;;;;;;20.10;59.90;;;;;;5014696;28;19944;-74
2022/10/19 02:07:27;;;;;;;;;;;20.10;59.20;;;;;;5015928;28;20003;-74
2022/10/19 02:09:53;;;;;;;;;;;20.10;59.20;;;;;;5034621;28;19909;-74
2022/10/19 02:12:19;;;;;;;;;;;20.10;59.30;;;;;;5018788;28;21987;-73
2022/10/19 02:14:45;;;;;;;;;;;20.10;59.30;;;;;;5053366;28;19908;-74
2022/10/19 02:17:15;;;;;;;;;;;20.20;59.30;;;;;;5052872;28;20375;-74
2022/10/19 02:19:41;;;;;;;;;;;20.20;59.30;;;;;;5035791;28;20296;-74
2022/10/19 02:22:06;;;;;;;;;;;20.20;59.20;;;;;;5032107;28;19909;-74
2022/10/19 02:24:32;;;;;;;;;;;20.20;59.10;;;;;;5033036;28;20315;-74
2022/10/19 02:26:59;;;;;;;;;;;20.20;59.10;;;;;;5033296;28;19909;-74
2022/10/19 02:29:25;;;;;;;;;;;20.20;59.10;;;;;;5033229;28;20396;-74
2022/10/19 02:31:50;;;;;;;;;;;20.20;59.00;;;;;;5032929;28;19916;-74
2022/10/19 02:34:15;;;;;;;;;;;20.20;59.00;;;;;;5015449;28;19916;-74
2022/10/19 02:36:41;;;;;;;;;;;20.20;59.00;;;;;;5015437;28;19962;-74
2022/10/19 02:39:06;;;;;;;;;;;20.20;59.00;;;;;;5045754;28;20254;-74
2022/10/19 02:41:36;;;;;;;;;;;20.20;59.00;;;;;;5018235;28;20325;-74
2022/10/19 02:44:06;;;;;;;;;;;20.20;59.00;;;;;;5035268;28;19959;-74
2022/10/19 02:46:39;;;;;;;;;;;20.20;59.00;;;;;;5018006;28;20371;-74
2022/10/19 02:49:05;;;;;;;;;;;20.20;59.00;;;;;;5035150;28;19993;-74
2022/10/19 02:51:30;;;;;;;;;;;20.20;58.90;;;;;;5034973;28;19909;-74
2022/10/19 02:53:56;;;;;;;;;;;20.20;59.00;;;;;;5052918;28;19919;-74
2022/10/19 02:56:21;;;;;;;;;;;20.20;59.00;;;;;;5052362;28;20395;-74
2022/10/19 02:58:47;;;;;;;;;;;20.20;58.90;;;;;;5053098;28;19928;-74
2022/10/19 03:01:13;;;;;;;;;;;20.20;58.90;;;;;;5052325;28;19916;-74
2022/10/19 03:03:38;;;;;;;;;;;20.20;58.80;;;;;;5052773;28;19954;-74
2022/10/19 03:06:04;;;;;;;;;;;20.20;58.80;;;;;;5031470;28;19925;-74
2022/10/19 03:08:29;;;;;;;;;;;20.20;59.00;;;;;;5031163;28;20284;-74
2022/10/19 03:10:57;;;;;;;;;;;20.10;58.80;;;;;;5006710;28;19938;-74
2022/10/19 03:13:22;;;;;;;;;;;20.20;58.80;;;;;;4992233;28;19918;-74
2022/10/19 03:15:48;;;;;;;;;;;20.20;58.90;;;;;;4993448;28;19917;-74
2022/10/19 03:18:13;;;;;;;;;;;20.20;58.80;;;;;;4992955;28;20009;-74
2022/10/19 03:20:39;;;;;;;;;;;20.20;58.80;;;;;;5008544;28;19957;-74
2022/10/19 03:23:04;;;;;;;;;;;20.10;58.80;;;;;;4992128;28;19913;-74
2022/10/19 03:25:30;;;;;;;;;;;20.10;58.80;;;;;;4993080;28;20385;-74
2022/10/19 03:27:55;;;;;;;;;;;20.10;58.80;;;;;;4993720;28;20407;-74
2022/10/19 03:30:20;;;;;;;;;;;20.20;58.90;;;;;;4993136;28;19913;-73
2022/10/19 03:32:46;;;;;;;;;;;20.20;58.80;;;;;;4991614;28;19914;-74
2022/10/19 03:35:11;;;;;;;;;;;20.20;58.70;;;;;;4993212;28;19917;-75
2022/10/19 03:37:37;;;;;;;;;;;20.20;58.60;;;;;;4993501;28;19917;-74
2022/10/19 03:40:02;;;;;;;;;;;20.20;58.50;;;;;;5032063;28;19939;-74
2022/10/19 03:42:28;;;;;;;;;;;20.20;58.40;;;;;;5024669;28;20418;-74
2022/10/19 03:44:53;;;;;;;;;;;20.20;58.40;;;;;;4991829;28;20282;-74
2022/10/19 03:47:19;;;;;;;;;;;20.10;58.50;;;;;;4991384;28;20267;-74
2022/10/19 03:49:44;;;;;;;;;;;20.10;58.60;;;;;;5008065;28;20289;-74
2022/10/19 03:52:10;;;;;;;;;;;20.10;59.20;;;;;;4991741;28;20012;-74
2022/10/19 03:54:35;;;;;;;;;;;20.10;58.60;;;;;;4991268;28;19914;-74
2022/10/19 03:57:00;;;;;;;;;;;20.20;58.60;;;;;;4992045;28;20008;-74
2022/10/19 03:59:26;;;;;;;;;;;20.20;58.40;;;;;;5008041;28;19914;-74
2022/10/19 04:01:51;;;;;;;;;;;20.20;58.60;;;;;;4992479;28;19910;-74
2022/10/19 04:04:17;;;;;;;;;;;20.20;58.50;;;;;;4992768;28;19916;-74
2022/10/19 04:06:43;;;;;;;;;;;20.10;58.40;;;;;;5008562;28;19917;-74
2022/10/19 04:09:12;;;;;;;;;;;20.20;58.50;;;;;;5029098;28;19913;-74
2022/10/19 04:11:38;;;;;;;;;;;20.10;58.50;;;;;;5035395;28;19915;-74
2022/10/19 04:14:03;;;;;;;;;;;20.10;58.70;;;;;;5035892;28;19917;-74
2022/10/19 04:16:29;;;;;;;;;;;20.10;58.70;;;;;;5035175;28;19928;-74
2022/10/19 04:18:54;;;;;;;;;;;20.10;58.70;;;;;;5034487;28;19921;-74
2022/10/19 04:21:20;;;;;;;;;;;20.10;58.70;;;;;;5025979;28;19913;-74
2022/10/19 04:23:46;;;;;;;;;;;20.10;58.80;;;;;;5016047;28;19920;-74
2022/10/19 04:26:11;;;;;;;;;;;20.10;58.80;;;;;;4997786;28;19921;-74
2022/10/19 04:28:37;;;;;;;;;;;20.00;58.70;;;;;;5014658;28;19932;-74
2022/10/19 04:31:02;;;;;;;;;;;20.00;58.70;;;;;;5014465;28;19909;-74
2022/10/19 04:33:28;;;;;;;;;;;20.00;58.70;;;;;;4997567;28;19920;-74
2022/10/19 04:35:56;;;;;;;;;;;20.00;58.70;;;;;;5015540;28;20009;-74
2022/10/19 04:38:22;;;;;;;;;;;20.00;58.70;;;;;;5021057;28;20042;-74
2022/10/19 04:40:47;;;;;;;;;;;20.00;58.60;;;;;;5033704;28;20012;-74
2022/10/19 04:43:13;;;;;;;;;;;20.00;58.60;;;;;;5034103;28;20392;-74
2022/10/19 04:45:38;;;;;;;;;;;20.00;58.60;;;;;;5034017;28;20404;-74
2022/10/19 04:48:04;;;;;;;;;;;20.10;58.70;;;;;;5033474;28;20397;-74
2022/10/19 04:50:29;;;;;;;;;;;20.10;58.70;;;;;;5033797;28;19909;-74
2022/10/19 04:52:55;;;;;;;;;;;20.10;58.70;;;;;;5034867;28;19913;-73
2022/10/19 04:55:20;;;;;;;;;;;20.10;58.60;;;;;;5033309;28;20387;-74
2022/10/19 04:57:46;;;;;;;;;;;20.10;58.50;;;;;;5034948;28;19909;-74
2022/10/19 05:00:12;;;;;;;;;;;20.10;58.50;;;;;;5033596;28;20301;-74
2022/10/19 05:02:41;;;;;;;;;;;20.10;58.60;;;;;;5033275;28;19909;-74
2022/10/19 05:05:06;;;;;;;;;;;20.10;58.60;;;;;;5037422;28;20351;-74
2022/10/19 05:07:32;;;;;;;;;;;20.10;58.70;;;;;;5054848;28;19909;-74
2022/10/19 05:09:57;;;;;;;;;;;20.10;58.50;;;;;;5033080;28;19991;-74
2022/10/19 05:12:23;;;;;;;;;;;20.20;58.50;;;;;;5017100;28;20360;-73
2022/10/19 05:14:48;;;;;;;;;;;20.20;58.20;;;;;;5016910;28;20047;-74
2022/10/19 05:17:14;;;;;;;;;;;20.10;58.20;;;;;;4999932;28;19920;-74
2022/10/19 05:19:39;;;;;;;;;;;20.10;58.10;;;;;;5033852;28;19916;-74
2022/10/19 05:22:04;;;;;;;;;;;20.10;58.20;;;;;;5034445;28;20104;-74
2022/10/19 05:24:31;;;;;;;;;;;20.10;58.20;;;;;;5034141;28;20003;-73
2022/10/19 05:26:56;;;;;;;;;;;20.10;58.30;;;;;;5000312;28;19909;-73
2022/10/19 05:29:23;;;;;;;;;;;20.10;58.30;;;;;;5034352;28;19916;-74
2022/10/19 05:31:48;;;;;;;;;;;20.10;58.30;;;;;;5016396;28;19909;-74
2022/10/19 05:34:14;;;;;;;;;;;20.10;58.20;;;;;;5034120;28;19971;-73
2022/10/19 05:36:39;;;;;;;;;;;20.10;58.20;;;;;;5016410;28;19909;-74
2022/10/19 05:39:06;;;;;;;;;;;20.10;58.10;;;;;;5046506;28;19913;-74
2022/10/19 05:41:31;;;;;;;;;;;20.10;58.20;;;;;;5019182;28;19952;-74
2022/10/19 05:43:57;;;;;;;;;;;20.10;58.10;;;;;;5032594;28;19916;-74
2022/10/19 05:46:23;;;;;;;;;;;20.10;58.20;;;;;;4999416;28;20446;-74
2022/10/19 05:48:48;;;;;;;;;;;20.00;58.30;;;;;;5016332;28;19919;-74
2022/10/19 05:51:15;;;;;;;;;;;20.00;58.30;;;;;;5033628;28;20374;-73
2022/10/19 05:53:40;;;;;;;;;;;20.10;58.20;;;;;;4999871;28;19963;-74
2022/10/19 05:56:06;;;;;;;;;;;20.10;58.20;;;;;;5015547;28;20332;-74
2022/10/19 05:58:31;;;;;;;;;;;20.10;58.30;;;;;;5016122;28;20159;-74
2022/10/19 06:00:57;;;;;;;;;;;20.10;58.30;;;;;;5015898;28;19920;-74
2022/10/19 06:03:23;;;;;;;;;;;20.10;58.30;;;;;;5015910;28;19909;-74
2022/10/19 06:05:48;;;;;;;;;;;20.00;58.20;;;;;;4996092;28;20389;-74
2022/10/19 06:08:17;;;;;;;;;;;20.10;58.20;;;;;;5012688;28;20471;-73
2022/10/19 06:10:43;;;;;;;;;;;20.00;58.20;;;;;;5012312;28;19910;-74
2022/10/19 06:13:08;;;;;;;;;;;20.00;58.20;;;;;;5029059;28;20020;-73
2022/10/19 06:15:35;;;;;;;;;;;20.00;58.10;;;;;;5029066;28;20007;-73
2022/10/19 06:18:03;;;;;;;;;;;20.10;58.30;;;;;;5028357;28;19910;-74
2022/10/19 06:20:29;;;;;;;;;;;20.00;58.30;;;;;;5013555;28;19914;-74
2022/10/19 06:22:54;;;;;;;;;;;20.00;58.20;;;;;;5029159;28;19917;-74
2022/10/19 06:25:20;;;;;;;;;;;20.00;58.20;;;;;;5028484;28;20000;-74
2022/10/19 06:27:46;;;;;;;;;;;20.00;58.20;;;;;;5012355;28;19926;-74
2022/10/19 06:30:11;;;;;;;;;;;20.00;58.20;;;;;;5011801;28;20000;-74
2022/10/19 06:32:37;;;;;;;;;;;20.00;58.10;;;;;;5028130;28;19913;-74
2022/10/19 06:35:02;;;;;;;;;;;20.00;58.10;;;;;;5012082;28;20293;-74
2022/10/19 06:37:28;;;;;;;;;;;20.10;58.30;;;;;;5012231;28;19909;-74
2022/10/19 06:39:53;;;;;;;;;;;20.10;58.20;;;;;;5012923;28;19917;-74
2022/10/19 06:42:19;;;;;;;;;;;20.00;58.20;;;;;;5028575;28;19910;-73
2022/10/19 06:44:44;;;;;;;;;;;20.00;58.10;;;;;;5013282;28;19913;-74
2022/10/19 06:47:10;;;;;;;;;;;20.00;58.20;;;;;;5028064;28;20004;-74
2022/10/19 06:49:36;;;;;;;;;;;20.00;58.30;;;;;;5013279;28;20302;-74
2022/10/19 06:52:01;;;;;;;;;;;20.00;58.50;;;;;;5011794;28;19909;-74
2022/10/19 06:54:27;;;;;;;;;;;19.90;58.50;;;;;;5027859;28;19910;-73
2022/10/19 06:56:52;;;;;;;;;;;19.90;58.60;;;;;;5013259;28;19909;-74
2022/10/19 06:59:18;;;;;;;;;;;19.90;58.50;;;;;;5011847;28;20314;-74
2022/10/19 07:01:43;;;;;;;;;;;19.90;58.50;;;;;;5012757;28;20293;-74
2022/10/19 07:04:09;;;;;;;;;;;19.90;58.50;;;;;;5028489;28;20337;-73
2022/10/19 07:06:34;;;;;;;;;;;20.00;58.50;;;;;;5026126;28;19948;-74
2022/10/19 07:09:01;;;;;;;;;;;20.00;59.10;;;;;;5031302;28;19913;-74
2022/10/19 07:11:27;;;;;;;;;;;19.90;58.40;;;;;;5000800;28;20370;-74
2022/10/19 07:13:52;;;;;;;;;;;20.00;58.50;;;;;;4992259;28;19972;-73
2022/10/19 07:16:18;;;;;;;;;;;20.00;58.50;;;;;;4991438;28;19917;-74
2022/10/19 07:18:43;;;;;;;;;;;20.00;58.50;;;;;;4992215;28;20293;-74
2022/10/19 07:21:10;;;;;;;;;;;20.00;58.50;;;;;;4991781;28;19914;-73
2022/10/19 07:23:36;;;;;;;;;;;20.00;58.60;;;;;;4993454;28;20385;-73
2022/10/19 07:26:05;;;;;;;;;;;19.90;58.50;;;;;;4991595;28;19972;-74
2022/10/19 07:28:30;;;;;;;;;;;19.90;58.60;;;;;;4992060;28;19961;-74
2022/10/19 07:30:56;;;;;;;;;;;19.90;58.60;;;;;;4992042;28;19914;-74
2022/10/19 07:33:21;;;;;;;;;;;20.00;58.70;;;;;;4991602;28;20346;-74
2022/10/19 07:35:47;;;;;;;;;;;20.00;58.60;;;;;;4991925;28;19916;-74
2022/10/19 07:38:12;;;;;;;;;;;20.00;58.50;;;;;;5001623;28;19925;-73
2022/10/19 07:40:38;;;;;;;;;;;20.00;58.40;;;;;;5032114;28;20288;-74
2022/10/19 07:43:03;;;;;;;;;;;20.00;58.50;;;;;;5034677;28;20011;-73
2022/10/19 07:45:29;;;;;;;;;;;20.00;58.50;;;;;;5036367;28;19918;-73
2022/10/19 07:47:54;;;;;;;;;;;20.10;58.50;;;;;;5035713;28;19963;-74
2022/10/19 07:50:21;;;;;;;;;;;20.00;58.40;;;;;;5036150;28;20262;-74
2022/10/19 07:52:47;;;;;;;;;;;20.10;58.50;;;;;;5018558;28;19953;-73
2022/10/19 07:55:12;;;;;;;;;;;20.00;58.30;;;;;;5035640;28;19914;-74
2022/10/19 07:57:38;;;;;;;;;;;20.10;58.30;;;;;;5036018;28;19995;-74
2022/10/19 08:00:03;;;;;;;;;;;20.10;58.30;;;;;;5020493;28;19910;-74
2022/10/19 08:02:29;;;;;;;;;;;20.10;58.30;;;;;;4996556;28;19910;-74
2022/10/19 08:04:54;;;;;;;;;;;20.10;58.30;;;;;;4998357;28;19921;-73
2022/10/19 08:07:20;;;;;;;;;;;20.10;58.40;;;;;;5018324;28;19913;-73
2022/10/19 08:09:45;;;;;;;;;;;20.10;58.40;;;;;;5053169;28;19908;-74
2022/10/19 08:12:11;;;;;;;;;;;20.10;58.30;;;;;;5037871;28;20048;-74
2022/10/19 08:14:36;;;;;;;;;;;20.10;58.30;;;;;;5037881;28;19912;-74
2022/10/19 08:17:01;;;;;;;;;;;20.10;58.30;;;;;;5055323;28;19909;-74
2022/10/19 08:19:27;;;;;;;;;;;20.10;58.30;;;;;;5055642;28;19944;-74
2022/10/19 08:21:52;;;;;;;;;;;20.10;58.30;;;;;;5037563;28;20003;-74
2022/10/19 08:24:18;;;;;;;;;;;20.10;58.30;;;;;;5037055;28;19916;-73
2022/10/19 08:26:43;;;;;;;;;;;20.10;58.30;;;;;;5055390;28;19908;-74
2022/10/19 08:29:10;;;;;;;;;;;20.10;58.30;;;;;;5037408;28;20003;-74
2022/10/19 08:31:36;;;;;;;;;;;20.10;59.00;;;;;;5036805;28;20427;-74
2022/10/19 08:34:01;;;;;;;;;;;20.00;58.30;;;;;;5035362;28;19914;-74
2022/10/19 08:36:30;;;;;;;;;;;20.10;58.50;;;;;;5035156;28;19910;-74
2022/10/19 08:38:55;;;;;;;;;;;20.00;58.50;;;;;;5046613;28;19913;-75
2022/10/19 08:41:21;;;;;;;;;;;20.00;58.60;;;;;;5021006;28;19916;-74
2022/10/19 08:44:02;;;;;;;;;;;20.00;58.70;;;;;;5055403;28;19908;-74
2022/10/19 08:46:32;;;;;;;;;;;20.00;58.80;;;;;;5036816;28;19908;-74
2022/10/19 08:48:58;;;;;;;;;;;20.00;58.80;;;;;;5055080;28;20000;-74
2022/10/19 08:51:24;;;;;;;;;;;20.00;58.80;;;;;;5020595;28;19940;-74
2022/10/19 08:53:50;;;;;;;;;;;19.90;58.80;;;;;;5054744;28;20058;-74
2022/10/19 08:56:31;;;;;;;;;;;20.00;59.50;;;;;;5054285;28;20436;-74
2022/10/19 08:59:09;;;;;;;;;;;20.00;58.80;;;;;;5036993;28;19909;-74
2022/10/19 09:01:51;;;;;;;;;;;20.00;58.80;;;;;;5036559;28;19935;-74
2022/10/19 09:04:16;;;;;;;;;;;20.00;58.80;;;;;;5054599;28;19908;-74
2022/10/19 09:07:00;;;;;;;;;;;20.00;58.80;;;;;;5054511;28;20213;-74
2022/10/19 09:09:26;;;;;;;;;;;20.00;58.70;;;;;;5054055;28;19913;-74
2022/10/19 09:11:51;;;;;;;;;;;20.00;58.60;;;;;;5033315;28;19909;-74
2022/10/19 09:14:18;;;;;;;;;;;20.10;58.70;;;;;;5016839;28;20369;-74
2022/10/19 09:16:45;;;;;;;;;;;20.00;58.70;;;;;;5016501;28;20372;-74
2022/10/19 09:19:20;;;;;;;;;;;20.00;58.70;;;;;;5016970;28;19916;-74
2022/10/19 09:21:47;;;;;;;;;;;20.10;58.50;;;;;;5034772;28;19960;-74
2022/10/19 09:24:30;;;;;;;;;;;20.10;58.50;;;;;;5016687;28;19916;-74
2022/10/19 09:26:57;;;;;;;;;;;20.10;58.40;;;;;;5000176;28;20265;-74
2022/10/19 09:29:25;;;;;;;;;;;20.10;58.50;;;;;;5016586;28;19909;-74
2022/10/19 09:31:52;;;;;;;;;;;20.10;58.50;;;;;;5016441;28;19956;-74
2022/10/19 09:34:38;;;;;;;;;;;20.10;58.50;;;;;;5016369;28;20356;-74
2022/10/19 09:37:03;;;;;;;;;;;20.10;58.40;;;;;;5033422;28;19917;-74
2022/10/19 09:39:29;;;;;;;;;;;20.20;58.30;;;;;;5049423;28;19913;-74
2022/10/19 09:41:55;;;;;;;;;;;20.20;58.20;;;;;;5036554;28;19909;-74
2022/10/19 09:44:23;;;;;;;;;;;20.20;58.00;;;;;;5054022;28;20008;-74
2022/10/19 09:46:59;;;;;;;;;;;20.30;58.20;;;;;;5035711;28;20000;-74
2022/10/19 09:49:57;;;;;;;;;;;20.30;58.10;;;;;;5036098;28;19916;-74
2022/10/19 09:52:35;;;;;;;;;;;20.30;58.20;;;;;;5020177;28;20404;-74
2022/10/19 09:55:04;;;;;;;;;;;20.20;58.10;;;;;;5053190;28;20386;-74
2022/10/19 09:57:29;;;;;;;;;;;20.30;58.30;;;;;;5053567;28;19913;-74
2022/10/19 09:59:55;;;;;;;;;;;20.30;58.30;;;;;;5032355;28;20011;-74
2022/10/19 10:02:21;;;;;;;;;;;20.30;58.30;;;;;;5015550;28;19956;-74
2022/10/19 10:04:54;;;;;;;;;;;20.30;58.20;;;;;;5015265;28;19916;-74
2022/10/19 10:07:19;;;;;;;;;;;20.30;58.20;;;;;;5033832;28;20377;-74
2022/10/19 10:09:44;;;;;;;;;;;20.30;58.20;;;;;;5033297;28;19919;-74
2022/10/19 10:12:12;;;;;;;;;;;20.30;58.30;;;;;;5035584;28;19940;-73
2022/10/19 10:14:38;;;;;;;;;;;20.30;58.30;;;;;;5053442;28;20336;-74
2022/10/19 10:17:05;;;;;;;;;;;20.30;58.40;;;;;;5052779;28;19955;-74
2022/10/19 10:19:31;;;;;;;;;;;20.30;58.40;;;;;;5035426;28;20334;-74
2022/10/19 10:21:57;;;;;;;;;;;20.20;59.00;;;;;;5053300;28;19916;-74
2022/10/19 10:24:29;;;;;;;;;;;20.20;58.40;;;;;;5035011;28;20164;-74
2022/10/19 10:26:55;;;;;;;;;;;20.30;58.40;;;;;;5053091;28;19931;-74
2022/10/19 10:29:21;;;;;;;;;;;20.30;58.40;;;;;;5018775;28;19913;-74
2022/10/19 10:31:48;;;;;;;;;;;20.30;58.30;;;;;;5050851;28;19916;-74
2022/10/19 10:34:30;;;;;;;;;;;20.30;58.30;;;;;;5015445;28;19914;-74
2022/10/19 10:36:56;;;;;;;;;;;20.30;58.30;;;;;;5015456;28;19913;-74
2022/10/19 10:39:23;;;;;;;;;;;20.30;58.40;;;;;;5029485;28;19915;-74
2022/10/19 10:41:49;;;;;;;;;;;20.30;58.40;;;;;;5052934;28;19909;-74
2022/10/19 10:44:33;;;;;;;;;;;20.30;58.60;;;;;;5052861;28;19999;-74
2022/10/19 10:46:59;;;;;;;;;;;20.20;58.70;;;;;;5052534;28;19909;-74
2022/10/19 10:49:28;;;;;;;;;;;20.20;58.70;;;;;;5038204;28;19916;-74
2022/10/19 10:51:55;;;;;;;;;;;20.20;58.60;;;;;;5035448;28;19908;-74
2022/10/19 10:54:22;;;;;;;;;;;20.30;58.60;;;;;;5034371;28;19913;-74
2022/10/19 10:56:56;;;;;;;;;;;20.20;58.60;;;;;;5052864;28;19916;-74
2022/10/19 10:59:23;;;;;;;;;;;20.20;58.60;;;;;;5052652;28;19908;-74
2022/10/19 11:02:00;;;;;;;;;;;20.20;58.70;;;;;;5052253;28;20368;-74
2022/10/19 11:04:27;;;;;;;;;;;20.20;58.70;;;;;;5052463;28;19916;-74
2022/10/19 11:06:54;;;;;;;;;;;20.20;58.60;;;;;;5031476;28;19952;-74
2022/10/19 11:09:40;;;;;;;;;;;20.30;58.70;;;;;;5014369;28;19909;-74
2022/10/19 11:12:07;;;;;;;;;;;20.30;58.70;;;;;;5031977;28;19913;-74
2022/10/19 11:14:32;;;;;;;;;;;20.20;58.80;;;;;;5031429;28;20441;-74
2022/10/19 11:16:59;;;;;;;;;;;20.20;59.00;;;;;;5032744;28;20081;-74
2022/10/19 11:19:26;;;;;;;;;;;20.20;59.10;;;;;;5035635;28;19909;-74
2022/10/19 11:21:56;;;;;;;;;;;20.20;59.20;;;;;;5018813;28;19965;-74
2022/10/19 11:24:25;;;;;;;;;;;20.10;59.30;;;;;;4995555;28;19909;-74
2022/10/19 11:27:12;;;;;;;;;;;20.10;59.40;;;;;;4996001;28;19909;-74
2022/10/19 11:29:41;;;;;;;;;;;20.10;59.40;;;;;;4995821;28;20267;-74
2022/10/19 11:32:12;;;;;;;;;;;20.10;59.50;;;;;;5011680;28;20382;-74
2022/10/19 11:34:44;;;;;;;;;;;20.10;59.50;;;;;;4997125;28;20521;-75
2022/10/19 11:37:22;;;;;;;;;;;20.10;59.50;;;;;;5011873;28;19910;-75
2022/10/19 11:39:51;;;;;;;;;;;20.10;59.40;;;;;;5031044;28;19948;-74
2022/10/19 11:42:18;;;;;;;;;;;20.20;59.50;;;;;;5036302;28;20007;-74
2022/10/19 11:44:54;;;;;;;;;;;20.20;59.50;;;;;;5034813;28;20288;-74
2022/10/19 11:47:30;;;;;;;;;;;20.20;59.40;;;;;;5034523;28;19909;-74
2022/10/19 11:50:02;;;;;;;;;;;20.20;59.50;;;;;;5036116;28;19917;-74
2022/10/19 11:52:27;;;;;;;;;;;20.20;59.60;;;;;;5034999;28;20257;-74
2022/10/19 11:54:56;;;;;;;;;;;20.20;59.60;;;;;;5034402;28;19915;-74
2022/10/19 11:57:22;;;;;;;;;;;20.20;59.50;;;;;;5035944;28;19916;-74
2022/10/19 12:00:05;;;;;;;;;;;20.20;59.40;;;;;;5006957;28;19910;-75
2022/10/19 12:02:49;;;;;;;;;;;20.30;59.60;;;;;;4995236;28;20382;-74
2022/10/19 12:05:35;;;;;;;;;;;20.20;59.50;;;;;;5003779;28;19925;-74
2022/10/19 12:08:17;;;;;;;;;;;20.30;59.50;;;;;;5018256;28;20000;-74
2022/10/19 12:11:02;;;;;;;;;;;20.30;59.50;;;;;;5037546;28;19996;-75
2022/10/19 12:13:39;;;;;;;;;;;20.30;59.50;;;;;;5021245;28;20019;-74
2022/10/19 12:16:05;;;;;;;;;;;20.30;59.50;;;;;;5055527;28;19960;-74
2022/10/19 12:18:35;;;;;;;;;;;20.30;59.50;;;;;;5037301;28;19916;-74
2022/10/19 12:21:01;;;;;;;;;;;20.30;59.50;;;;;;5037671;28;19909;-74
2022/10/19 12:23:29;;;;;;;;;;;20.30;59.50;;;;;;5037789;28;19915;-75
2022/10/19 12:25:55;;;;;;;;;;;20.40;59.50;;;;;;5037382;28;19916;-74
2022/10/19 12:28:22;;;;;;;;;;;20.40;59.60;;;;;;5037096;28;20372;-75
2022/10/19 12:30:48;;;;;;;;;;;20.40;59.50;;;;;;5037686;28;19916;-75
2022/10/19 12:33:15;;;;;;;;;;;20.30;60.00;;;;;;5037109;28;19913;-75
2022/10/19 12:35:51;;;;;;;;;;;20.30;59.30;;;;;;5037495;28;19909;-74
2022/10/19 12:38:22;;;;;;;;;;;20.30;59.40;;;;;;5055197;28;19909;-74
2022/10/19 12:41:00;;;;;;;;;;;20.30;59.40;;;;;;5036907;28;19913;-74
2022/10/19 12:43:37;;;;;;;;;;;20.40;59.40;;;;;;5037368;28;19913;-75
2022/10/19 12:46:06;;;;;;;;;;;20.40;59.40;;;;;;5037140;28;19909;-75
2022/10/19 12:48:31;;;;;;;;;;;20.40;59.50;;;;;;5034722;28;19913;-75
2022/10/19 12:50:58;;;;;;;;;;;20.40;59.40;;;;;;5034980;28;19909;-74
2022/10/19 12:53:27;;;;;;;;;;;20.40;59.30;;;;;;5017361;28;19967;-75
2022/10/19 12:56:08;;;;;;;;;;;20.40;59.30;;;;;;5034439;28;19909;-74
2022/10/19 12:58:42;;;;;;;;;;;20.40;59.40;;;;;;5035236;28;19909;-75
2022/10/19 13:01:08;;;;;;;;;;;20.40;59.40;;;;;;5034871;28;19948;-74
2022/10/19 13:03:35;;;;;;;;;;;20.40;59.40;;;;;;5016721;28;19916;-73
2022/10/19 13:06:02;;;;;;;;;;;20.30;59.30;;;;;;5016890;28;19921;-74
2022/10/19 13:08:41;;;;;;;;;;;20.30;59.30;;;;;;5020292;28;19932;-74
2022/10/19 13:11:07;;;;;;;;;;;20.30;59.40;;;;;;5019799;28;19909;-74
2022/10/19 13:13:51;;;;;;;;;;;20.30;59.40;;;;;;5036834;28;19952;-74
2022/10/19 13:16:36;;;;;;;;;;;20.20;59.30;;;;;;5036260;28;19919;-74
2022/10/19 13:19:28;;;;;;;;;;;20.20;59.40;;;;;;5054074;28;19943;-74
2022/10/19 13:22:00;;;;;;;;;;;20.20;59.40;;;;;;5042537;28;20397;-74
2022/10/19 13:24:27;;;;;;;;;;;20.20;59.60;;;;;;5033973;28;19916;-74
2022/10/19 13:27:02;;;;;;;;;;;20.20;59.60;;;;;;5034388;28;20276;-74
2022/10/19 13:29:40;;;;;;;;;;;20.30;59.50;;;;;;5033125;28;19934;-74
2022/10/19 13:32:24;;;;;;;;;;;20.30;59.60;;;;;;5033836;28;19910;-74
2022/10/19 13:34:49;;;;;;;;;;;20.30;59.50;;;;;;5034121;28;19917;-74
2022/10/19 13:37:15;;;;;;;;;;;20.40;59.50;;;;;;5034227;28;20377;-74
2022/10/19 13:39:40;;;;;;;;;;;20.30;59.40;;;;;;5032338;28;19913;-74
2022/10/19 13:42:12;;;;;;;;;;;20.40;59.30;;;;;;5036215;28;19962;-75
2022/10/19 13:44:41;;;;;;;;;;;20.40;59.40;;;;;;5036098;28;19916;-74
2022/10/19 13:47:30;;;;;;;;;;;20.40;59.40;;;;;;5036351;28;20369;-74
2022/10/19 13:50:10;;;;;;;;;;;20.40;59.30;;;;;;5060550;28;19909;-74
2022/10/19 13:52:54;;;;;;;;;;;20.40;59.30;;;;;;5053830;28;19923;-74
2022/10/19 13:55:26;;;;;;;;;;;20.40;59.30;;;;;;5053457;28;19932;-74
2022/10/19 13:58:12;;;;;;;;;;;20.40;59.30;;;;;;5053845;28;19909;-75
2022/10/19 14:00:44;;;;;;;;;;;20.40;59.20;;;;;;5038728;28;19916;-74
2022/10/19 14:03:17;;;;;;;;;;;20.40;59.30;;;;;;5033258;28;19948;-74
2022/10/19 14:05:46;;;;;;;;;;;20.40;59.20;;;;;;5016654;28;20285;-74
2022/10/19 14:08:29;;;;;;;;;;;20.40;59.30;;;;;;5019157;28;19964;-74
2022/10/19 14:10:59;;;;;;;;;;;20.30;59.20;;;;;;5031927;28;19910;-74
2022/10/19 14:13:24;;;;;;;;;;;20.30;59.30;;;;;;5032319;28;19917;-74
2022/10/19 14:15:51;;;;;;;;;;;20.30;59.30;;;;;;5033731;28;20348;-74
2022/10/19 14:18:24;;;;;;;;;;;20.20;59.40;;;;;;5033116;28;19913;-74
2022/10/19 14:20:56;;;;;;;;;;;20.20;59.30;;;;;;5032235;28;19915;-74
2022/10/19 14:23:23;;;;;;;;;;;20.20;59.40;;;;;;5033588;28;19913;-74